Impacts TAF Board INFO
FOR SITUATIONAL AWARENESS. NOT TO BE USED FOR FLIGHT PLANNING PURPOSES.
IDs:

KDFW - Dallas-Ft Worth Intl, TX, US

Issued at 0854 UTC 23 May 2018
Updated at 1059 UTC 23 May 2018
Potential Impact None Slight Moderate High
Time<<24/11Z 24/12Z 24/13Z 24/14Z 24/15Z 24/16Z 24/17Z 24/18Z 24/19Z 24/20Z 24/21Z 24/22Z 24/23Z
Type PRVL
VIS >6
CIG 250
Cover BKN
FltCat VFR
WX --
WDir 150
WSpd 7
WGst --

Raw TAF
KDFW 230854Z 2309/2412 16006KT P6SM SCT300
  FM231400 16007KT P6SM SCT025
  FM231700 16008KT P6SM BKN050
  FM240100 15007KT P6SM BKN250


METAR Board
Radar Display
Forecast Discussion

FOR SITUATIONAL AWARENESS. NOT TO BE USED FOR FLIGHT PLANNING PURPOSES.